Time;durP1;ratioP1;P1;durP2;ratioP2;P2;SDS_P1;SDS_P2;PMS_P1;PMS_P2;Temp;Humidity;BMP_temperature;BMP_pressure;BME280_temperature;BME280_humidity;BME280_pressure;Samples;Min_cycle;Max_cycle;Signal;HPM_P1;HPM_P2
2021/03/20 00:01:52;;;;;;;10.43;7.85;;;1.10;96.60;;;;;;4135282;28;20314;-80
2021/03/20 00:03:56;;;;;;;11.00;7.05;;;1.20;96.40;;;;;;4131824;28;20228;-81
2021/03/20 00:05:58;;;;;;;10.52;8.18;;;1.20;95.60;;;;;;4133859;28;20250;-81
2021/03/20 00:08:18;;;;;;;11.40;8.90;;;1.10;95.60;;;;;;4134294;28;20266;-81
2021/03/20 00:10:22;;;;;;;14.00;10.73;;;1.10;95.80;;;;;;4130124;28;20278;-80
2021/03/20 06:15:43;;;;;;;6.50;4.30;;;0.20;98.30;;;;;;4095916;28;20269;-81
2021/03/20 06:18:03;;;;;;;6.00;4.30;;;0.20;98.30;;;;;;4099399;28;20329;-81
2021/03/20 06:20:55;;;;;;;4.43;3.80;;;0.20;98.30;;;;;;4092993;28;20944;-81
2021/03/20 06:23:29;;;;;;;10.43;4.43;;;0.30;98.30;;;;;;4103073;28;20230;-81
2021/03/20 06:26:08;;;;;;;5.40;3.65;;;0.30;98.30;;;;;;4091112;29;20243;-81
2021/03/20 06:28:26;;;;;;;6.30;3.38;;;0.30;98.30;;;;;;4035266;29;20273;-81
2021/03/20 06:30:39;;;;;;;6.50;3.40;;;0.30;98.30;;;;;;4098333;28;20227;-81
2021/03/20 06:32:48;;;;;;;5.38;2.97;;;0.30;98.30;;;;;;4090742;28;20601;-81
2021/03/20 06:34:56;;;;;;;6.57;3.70;;;0.30;98.30;;;;;;4089414;28;20239;-81
2021/03/20 06:37:02;;;;;;;3.80;3.20;;;0.30;98.30;;;;;;4094468;28;20238;-81
2021/03/20 06:39:17;;;;;;;5.95;3.70;;;0.20;98.30;;;;;;4090892;28;21074;-81
2021/03/20 06:41:27;;;;;;;4.65;3.42;;;0.20;98.30;;;;;;4090471;28;20238;-81
2021/03/20 06:43:36;;;;;;;6.20;3.75;;;0.30;98.30;;;;;;4088665;29;20534;-81
2021/03/20 06:45:40;;;;;;;7.38;3.50;;;0.30;98.30;;;;;;4094006;28;20744;-81
2021/03/20 06:47:46;;;;;;;7.53;3.90;;;0.30;98.30;;;;;;4089305;28;20240;-81
2021/03/20 06:49:56;;;;;;;5.15;3.88;;;0.30;98.30;;;;;;4093627;28;20241;-81
2021/03/20 06:52:00;;;;;;;5.05;3.33;;;0.20;98.30;;;;;;4088514;28;20572;-81
2021/03/20 06:54:05;;;;;;;7.22;3.70;;;0.30;98.30;;;;;;4089396;28;20290;-81
2021/03/20 06:56:09;;;;;;;4.90;3.35;;;0.30;98.30;;;;;;4091581;29;20235;-81
2021/03/20 06:58:23;;;;;;;4.85;3.20;;;0.30;98.30;;;;;;4093539;28;20227;-81
2021/03/20 07:00:30;;;;;;;3.97;3.15;;;0.30;98.30;;;;;;4091654;28;20265;-81
2021/03/20 07:02:43;;;;;;;7.72;3.40;;;0.40;98.30;;;;;;4090250;28;20230;-81
2021/03/20 07:05:04;;;;;;;5.07;3.50;;;0.50;98.30;;;;;;4090839;29;20237;-81
2021/03/20 07:07:34;;;;;;;5.95;3.55;;;0.60;98.30;;;;;;4093265;28;20237;-81
2021/03/20 07:09:40;;;;;;;5.68;3.67;;;0.60;98.30;;;;;;4088558;29;20225;-81
2021/03/20 07:11:43;;;;;;;5.00;3.40;;;0.70;98.30;;;;;;4089645;28;20257;-81
2021/03/20 07:13:51;;;;;;;5.13;3.10;;;0.60;98.30;;;;;;4088333;28;20601;-82
2021/03/20 07:16:06;;;;;;;4.72;3.33;;;0.60;98.30;;;;;;4092375;29;20251;-82
2021/03/20 07:18:32;;;;;;;4.97;3.58;;;0.70;98.30;;;;;;4090928;29;20236;-82
2021/03/20 07:20:41;;;;;;;6.10;3.67;;;0.80;98.30;;;;;;4086965;28;20248;-81
2021/03/20 07:22:45;;;;;;;7.38;3.45;;;0.80;98.30;;;;;;4086149;28;20254;-81
2021/03/20 07:24:48;;;;;;;6.07;3.78;;;0.80;98.30;;;;;;4086332;28;20704;-81
2021/03/20 07:26:54;;;;;;;8.05;3.80;;;0.80;98.30;;;;;;4087013;28;20317;-81
2021/03/20 07:28:58;;;;;;;6.30;3.60;;;0.90;98.30;;;;;;4086851;29;20244;-81
2021/03/20 07:31:08;;;;;;;4.93;3.58;;;0.90;98.30;;;;;;4090994;29;20308;-81
2021/03/20 07:33:30;;;;;;;6.10;3.47;;;0.90;98.30;;;;;;4083286;29;20653;-81
2021/03/20 07:35:35;;;;;;;7.07;3.60;;;1.00;98.30;;;;;;4090516;28;20321;-81
2021/03/20 07:37:37;;;;;;;6.40;3.00;;;1.10;98.30;;;;;;4089481;28;20250;-81
2021/03/20 07:39:43;;;;;;;5.70;3.70;;;1.20;98.30;;;;;;4087928;29;20233;-81
2021/03/20 07:41:58;;;;;;;4.30;3.13;;;1.30;98.10;;;;;;4089174;28;20336;-81
2021/03/20 07:44:16;;;;;;;4.20;3.28;;;1.30;97.40;;;;;;4088331;29;20245;-80
2021/03/20 07:46:18;;;;;;;5.05;3.70;;;1.20;97.40;;;;;;4095471;28;20658;-81
2021/03/20 07:48:26;;;;;;;5.10;3.90;;;1.30;97.50;;;;;;4089854;28;20234;-81
2021/03/20 07:50:32;;;;;;;6.35;2.85;;;1.20;97.60;;;;;;4093563;29;20233;-81
2021/03/20 07:52:35;;;;;;;5.45;3.15;;;1.30;97.70;;;;;;4090432;28;21010;-81
2021/03/20 07:54:38;;;;;;;6.45;3.70;;;1.40;97.20;;;;;;4089792;28;20229;-81
2021/03/20 07:56:40;;;;;;;4.82;3.20;;;1.30;96.60;;;;;;4091455;29;20261;-81
2021/03/20 07:58:45;;;;;;;6.57;4.13;;;1.20;96.70;;;;;;4091871;28;20316;-81
2021/03/20 08:00:53;;;;;;;5.30;3.22;;;1.30;96.60;;;;;;4093889;28;20264;-81
2021/03/20 08:03:04;;;;;;;3.25;2.95;;;1.30;96.70;;;;;;4091681;29;20225;-81
2021/03/20 08:05:26;;;;;;;4.43;3.00;;;1.40;96.50;;;;;;4090966;29;20603;-81
2021/03/20 08:07:47;;;;;;;3.97;3.30;;;1.50;95.70;;;;;;4088931;29;20582;-81
2021/03/20 08:09:49;;;;;;;4.90;3.15;;;1.50;95.20;;;;;;4094733;28;20234;-81
2021/03/20 08:12:07;;;;;;;4.07;2.80;;;1.40;95.10;;;;;;4090698;28;20317;-81
2021/03/20 08:14:27;;;;;;;5.00;3.03;;;1.40;95.40;;;;;;4097529;28;20251;-81
2021/03/20 08:16:29;;;;;;;6.90;3.40;;;1.40;95.30;;;;;;4090732;28;20261;-81
2021/03/20 08:18:35;;;;;;;5.20;3.30;;;1.50;95.50;;;;;;4085893;29;20238;-80
2021/03/20 08:20:37;;;;;;;4.03;3.28;;;1.50;95.30;;;;;;4093987;28;20222;-81
2021/03/20 08:22:59;;;;;;;3.72;2.80;;;1.60;95.40;;;;;;4092743;28;20667;-81
2021/03/20 08:25:27;;;;;;;4.43;2.88;;;1.60;94.80;;;;;;4086618;29;20252;-81
2021/03/20 08:27:41;;;;;;;5.43;3.10;;;1.60;94.80;;;;;;4086016;29;20230;-81
2021/03/20 08:30:09;;;;;;;9.43;3.47;;;1.70;94.90;;;;;;4089002;29;20249;-81
2021/03/20 08:32:21;;;;;;;5.82;2.85;;;1.70;94.20;;;;;;4088062;29;20701;-81
2021/03/20 08:34:39;;;;;;;6.60;3.55;;;1.70;94.30;;;;;;4090466;28;20297;-81
2021/03/20 08:36:58;;;;;;;5.85;3.20;;;1.80;94.10;;;;;;4088204;29;20258;-81
2021/03/20 08:39:18;;;;;;;4.03;3.10;;;1.90;94.00;;;;;;4091556;28;20321;-80
2021/03/20 08:41:29;;;;;;;3.10;2.47;;;2.00;93.70;;;;;;4092516;28;20241;-80
2021/03/20 08:44:02;;;;;;;4.72;2.78;;;2.00;92.70;;;;;;4095728;28;20229;-80
2021/03/20 08:46:18;;;;;;;5.72;3.08;;;2.00;92.90;;;;;;4089629;28;20261;-81
2021/03/20 08:48:31;;;;;;;3.40;3.00;;;2.10;93.00;;;;;;4098664;28;20255;-81
2021/03/20 08:50:43;;;;;;;6.13;3.17;;;2.20;92.80;;;;;;4096160;28;20332;-80
2021/03/20 08:53:00;;;;;;;4.63;2.90;;;2.30;92.90;;;;;;4089550;29;20686;-81
2021/03/20 08:55:18;;;;;;;3.53;2.92;;;2.50;92.70;;;;;;4085940;29;20250;-81
2021/03/20 08:57:31;;;;;;;8.57;5.63;;;2.50;91.10;;;;;;4092886;29;20269;-81
2021/03/20 08:59:36;;;;;;;5.38;3.20;;;2.30;91.20;;;;;;4093106;28;20244;-81
2021/03/20 09:01:41;;;;;;;3.80;2.90;;;2.20;90.90;;;;;;4090226;28;20574;-81
2021/03/20 09:03:48;;;;;;;6.18;3.47;;;2.10;91.30;;;;;;4086423;28;20272;-81
2021/03/20 09:05:57;;;;;;;4.40;3.03;;;2.20;91.90;;;;;;4098320;28;20319;-81
2021/03/20 09:08:05;;;;;;;5.25;2.97;;;2.30;91.40;;;;;;4091940;28;20278;-81
2021/03/20 09:10:17;;;;;;;4.40;2.95;;;2.30;91.10;;;;;;4094227;28;20780;-81
2021/03/20 09:12:25;;;;;;;4.55;3.40;;;2.10;91.00;;;;;;4090580;28;20261;-81
2021/03/20 09:14:30;;;;;;;3.97;2.70;;;2.20;91.80;;;;;;4093200;28;20233;-81
2021/03/20 09:16:37;;;;;;;4.40;3.00;;;2.30;91.20;;;;;;4093047;28;20608;-81
2021/03/20 09:18:40;;;;;;;4.53;3.25;;;2.40;91.00;;;;;;4091640;28;20233;-81
2021/03/20 09:20:46;;;;;;;5.65;3.40;;;2.40;91.20;;;;;;4095060;28;20677;-81
2021/03/20 09:22:50;;;;;;;4.65;3.03;;;2.50;90.90;;;;;;4091656;29;20230;-81
2021/03/20 09:24:55;;;;;;;3.72;3.13;;;2.60;90.60;;;;;;4094923;28;20261;-81
2021/03/20 09:26:59;;;;;;;4.60;3.10;;;2.70;90.00;;;;;;4091580;29;20333;-80
2021/03/20 09:29:12;;;;;;;4.32;3.03;;;2.70;89.70;;;;;;4093848;28;20725;-81
2021/03/20 09:31:48;;;;;;;5.07;3.45;;;2.60;89.50;;;;;;4094031;28;20666;-81
2021/03/20 09:33:50;;;;;;;4.43;3.13;;;2.70;89.80;;;;;;4092925;28;20285;-81
2021/03/20 09:35:55;;;;;;;4.82;3.20;;;2.90;89.80;;;;;;4095359;28;20236;-81
2021/03/20 09:38:01;;;;;;;7.45;4.00;;;3.00;89.60;;;;;;4094790;28;20261;-81
2021/03/20 09:40:14;;;;;;;4.57;3.50;;;3.10;89.10;;;;;;4087635;29;20244;-80
2021/03/20 09:42:31;;;;;;;5.00;3.30;;;3.00;89.40;;;;;;4094882;28;20323;-81
2021/03/20 09:44:35;;;;;;;5.18;3.20;;;3.10;89.80;;;;;;4095877;28;20760;-81
2021/03/20 09:46:59;;;;;;;3.67;3.10;;;3.20;89.00;;;;;;4095366;28;20324;-81
2021/03/20 09:49:04;;;;;;;4.57;3.40;;;3.00;89.10;;;;;;4084089;29;20702;-81
2021/03/20 09:51:43;;;;;;;7.80;5.03;;;3.00;89.50;;;;;;4089517;28;20317;-81
2021/03/20 09:53:45;;;;;;;5.65;3.45;;;3.10;89.60;;;;;;4086815;29;20265;-82
2021/03/20 09:55:49;;;;;;;5.35;3.30;;;3.10;89.50;;;;;;4094728;28;20265;-81
2021/03/20 09:57:53;;;;;;;4.28;3.33;;;3.10;89.70;;;;;;4094649;28;20226;-81
2021/03/20 09:59:55;;;;;;;5.03;3.53;;;3.00;90.00;;;;;;4094259;28;20969;-81
2021/03/20 10:01:59;;;;;;;11.38;5.13;;;3.00;90.00;;;;;;4088175;28;20340;-81
2021/03/20 10:04:27;;;;;;;5.28;2.90;;;3.00;90.20;;;;;;4090521;28;20265;-81
2021/03/20 10:06:35;;;;;;;6.00;3.30;;;3.00;89.90;;;;;;4092620;28;20244;-80
2021/03/20 10:08:43;;;;;;;7.72;3.40;;;3.20;90.10;;;;;;4097550;28;20229;-81
2021/03/20 10:10:49;;;;;;;4.40;3.70;;;3.40;89.60;;;;;;4089128;28;20233;-81
2021/03/20 10:13:02;;;;;;;8.43;3.92;;;3.40;89.50;;;;;;4097040;28;20323;-81
2021/03/20 10:15:28;;;;;;;4.65;3.35;;;3.50;89.70;;;;;;4086377;28;20237;-81
2021/03/20 10:17:32;;;;;;;4.80;3.35;;;3.50;89.60;;;;;;4091929;28;20264;-81
2021/03/20 10:19:41;;;;;;;5.05;3.92;;;3.50;90.00;;;;;;4087925;29;20229;-82
2021/03/20 10:22:02;;;;;;;4.35;3.63;;;3.60;90.20;;;;;;4091958;28;20633;-81
2021/03/20 10:24:18;;;;;;;6.93;4.05;;;3.60;90.30;;;;;;4090417;28;20310;-81
2021/03/20 10:26:26;;;;;;;5.68;4.55;;;3.60;90.90;;;;;;4092563;29;20349;-81
2021/03/20 10:28:29;;;;;;;4.22;3.55;;;3.70;90.60;;;;;;4095897;28;20237;-81
2021/03/20 10:30:35;;;;;;;9.70;5.05;;;3.90;90.50;;;;;;4089787;28;20233;-81
2021/03/20 10:32:37;;;;;;;4.90;4.13;;;3.80;89.90;;;;;;4090327;28;20246;-81
2021/03/20 10:34:46;;;;;;;4.60;4.00;;;3.70;90.10;;;;;;4091062;29;20245;-82
2021/03/20 10:37:01;;;;;;;6.15;3.88;;;3.80;90.50;;;;;;4093381;28;21103;-81
2021/03/20 10:39:26;;;;;;;5.93;3.70;;;3.90;90.60;;;;;;4094013;29;20257;-82
2021/03/20 10:41:32;;;;;;;8.80;4.10;;;4.20;90.30;;;;;;4094318;28;20260;-81
2021/03/20 10:43:42;;;;;;;4.70;3.92;;;4.20;89.90;;;;;;4099518;28;20229;-81
2021/03/20 10:45:45;;;;;;;5.40;3.70;;;4.10;90.30;;;;;;4096442;28;20242;-81
2021/03/20 10:47:47;;;;;;;4.68;3.10;;;4.10;90.30;;;;;;4095500;28;20596;-81
2021/03/20 10:49:54;;;;;;;4.88;3.42;;;4.30;90.40;;;;;;4094735;28;20312;-81
2021/03/20 10:51:58;;;;;;;5.60;3.25;;;4.30;90.70;;;;;;4093634;28;20289;-81
2021/03/20 10:54:09;;;;;;;7.63;3.65;;;4.10;90.90;;;;;;4092348;28;20237;-82
2021/03/20 10:56:28;;;;;;;7.40;5.03;;;4.30;91.40;;;;;;4094058;29;20744;-82
2021/03/20 10:58:50;;;;;;;5.25;4.60;;;4.60;91.50;;;;;;4095140;28;20248;-81
2021/03/20 11:00:54;;;;;;;7.15;4.20;;;4.80;90.90;;;;;;4094158;28;20257;-82
2021/03/20 11:03:08;;;;;;;6.53;3.80;;;4.80;91.10;;;;;;4097541;28;20221;-82
2021/03/20 11:05:30;;;;;;;5.00;3.97;;;4.80;91.80;;;;;;4093823;28;20248;-81
2021/03/20 11:07:48;;;;;;;5.78;4.97;;;4.90;91.70;;;;;;4092453;28;20229;-82
2021/03/20 11:10:06;;;;;;;5.90;4.38;;;4.90;91.60;;;;;;4093321;29;20244;-81
2021/03/20 11:12:26;;;;;;;11.13;4.37;;;4.90;90.90;;;;;;4090795;29;20286;-81
2021/03/20 11:14:29;;;;;;;6.63;4.17;;;5.00;91.60;;;;;;4087233;28;20588;-81
2021/03/20 11:16:48;;;;;;;8.67;4.27;;;5.00;91.50;;;;;;4092594;28;21201;-81
2021/03/20 11:18:55;;;;;;;5.00;3.90;;;5.10;91.70;;;;;;4088969;28;21101;-81
2021/03/20 11:20:58;;;;;;;5.90;4.40;;;5.10;92.90;;;;;;4091450;28;20840;-81
2021/03/20 11:23:01;;;;;;;5.90;4.70;;;5.20;93.20;;;;;;4093835;28;20490;-81
2021/03/20 11:25:10;;;;;;;4.90;3.90;;;5.30;92.80;;;;;;4094500;28;20486;-81
2021/03/20 11:27:16;;;;;;;6.70;3.47;;;5.30;93.10;;;;;;4089551;28;21000;-81
2021/03/20 11:29:21;;;;;;;6.40;4.60;;;4.80;94.60;;;;;;4094594;28;21032;-82
2021/03/20 11:31:25;;;;;;;5.93;4.70;;;4.70;95.90;;;;;;4093049;28;20676;-82
2021/03/20 11:33:31;;;;;;;5.70;4.38;;;4.80;95.80;;;;;;4094171;29;20324;-81
2021/03/20 11:35:37;;;;;;;7.10;3.83;;;4.90;95.60;;;;;;4089281;28;20631;-81
2021/03/20 11:38:04;;;;;;;6.97;4.97;;;5.00;95.10;;;;;;4055252;29;21099;-81
2021/03/20 11:40:09;;;;;;;5.18;4.57;;;5.00;94.70;;;;;;4057304;29;20245;-82
2021/03/20 11:42:14;;;;;;;9.10;4.10;;;5.00;96.00;;;;;;4054045;29;21009;-81
2021/03/20 11:44:43;;;;;;;6.22;4.32;;;4.90;96.50;;;;;;4056841;29;20590;-82
2021/03/20 11:46:59;;;;;;;6.72;4.40;;;5.00;95.70;;;;;;4054075;29;20731;-81
2021/03/20 12:15:58;;;;;;;7.63;5.10;;;5.00;98.30;;;;;;3853197;30;20241;-80
2021/03/20 12:18:09;;;;;;;6.10;4.60;;;5.00;98.30;;;;;;3982811;29;20595;-80
2021/03/20 12:20:43;;;;;;;6.38;5.32;;;5.00;98.30;;;;;;4013538;29;20498;-80
2021/03/20 12:22:48;;;;;;;8.82;5.53;;;4.90;98.30;;;;;;4033045;29;20291;-80
2021/03/20 12:24:52;;;;;;;8.30;5.65;;;5.00;98.30;;;;;;4035624;29;20263;-80
2021/03/20 12:26:57;;;;;;;12.97;6.10;;;5.10;98.30;;;;;;4035055;29;20239;-81
2021/03/20 12:29:10;;;;;;;7.27;5.40;;;5.30;98.30;;;;;;4068976;29;20569;-80
2021/03/20 12:31:28;;;;;;;11.20;5.87;;;5.30;98.30;;;;;;4088513;28;20526;-80
2021/03/20 12:33:47;;;;;;;6.97;4.83;;;5.20;98.30;;;;;;4086050;29;20529;-79
2021/03/20 12:35:50;;;;;;;4.87;4.33;;;5.10;98.30;;;;;;4089157;29;20495;-80
2021/03/20 12:38:11;;;;;;;8.93;6.03;;;5.10;98.30;;;;;;4086640;29;20494;-79
2021/03/20 12:40:16;;;;;;;6.38;5.78;;;5.00;98.30;;;;;;4086119;29;20294;-79
2021/03/20 12:42:18;;;;;;;8.48;5.45;;;4.80;98.30;;;;;;4090014;29;20292;-79
2021/03/20 12:44:26;;;;;;;8.50;5.53;;;4.90;98.30;;;;;;4090267;28;20265;-79
2021/03/20 12:46:29;;;;;;;8.25;6.00;;;4.90;98.30;;;;;;4093039;28;20237;-79
2021/03/20 12:48:34;;;;;;;7.63;5.65;;;4.90;98.30;;;;;;4091145;28;20230;-79
2021/03/20 12:50:37;;;;;;;9.55;6.47;;;5.00;98.30;;;;;;4085437;29;20242;-79
2021/03/20 12:52:39;;;;;;;7.70;4.97;;;4.90;98.30;;;;;;4090671;28;20265;-80
2021/03/20 12:54:45;;;;;;;8.83;5.50;;;5.00;98.30;;;;;;4087748;29;20240;-79
2021/03/20 12:56:52;;;;;;;8.52;6.07;;;5.00;98.30;;;;;;4087632;29;20486;-80
2021/03/20 12:58:54;;;;;;;8.00;5.72;;;5.00;98.30;;;;;;4090454;28;20265;-80
2021/03/20 13:00:56;;;;;;;8.88;5.78;;;5.10;98.30;;;;;;4086838;29;20230;-80
2021/03/20 13:03:00;;;;;;;8.27;5.70;;;5.00;98.30;;;;;;4091001;29;20265;-80
2021/03/20 13:05:04;;;;;;;7.23;5.60;;;5.00;98.30;;;;;;4093253;28;20262;-80
2021/03/20 13:07:07;;;;;;;7.95;5.63;;;5.00;98.30;;;;;;4095744;28;20503;-80
2021/03/20 13:09:10;;;;;;;8.23;5.60;;;5.10;98.30;;;;;;4095843;28;20691;-80
2021/03/20 13:11:23;;;;;;;7.73;6.40;;;5.10;98.30;;;;;;4095207;29;20324;-80
2021/03/20 13:13:25;;;;;;;6.43;5.03;;;5.10;98.30;;;;;;4095311;28;20584;-80
2021/03/20 13:15:27;;;;;;;10.13;5.90;;;5.00;98.30;;;;;;4092690;29;20272;-79
2021/03/20 13:17:31;;;;;;;7.20;5.45;;;5.00;98.30;;;;;;4090886;28;20497;-80
2021/03/20 13:19:34;;;;;;;7.75;5.03;;;5.00;98.30;;;;;;4089444;28;20285;-79
2021/03/20 13:21:37;;;;;;;11.15;6.30;;;5.00;98.30;;;;;;4089389;29;20238;-79
2021/03/20 13:23:39;;;;;;;10.00;5.35;;;5.10;98.30;;;;;;4092790;28;20317;-79
2021/03/20 13:25:42;;;;;;;6.13;5.53;;;5.20;98.30;;;;;;4092260;29;20257;-80
2021/03/20 13:27:44;;;;;;;10.77;6.13;;;5.10;98.30;;;;;;4096380;28;20489;-79
2021/03/20 13:29:46;;;;;;;7.72;5.55;;;5.10;98.30;;;;;;4090832;28;20238;-79
2021/03/20 13:31:48;;;;;;;7.97;5.77;;;5.10;98.30;;;;;;4097425;29;20234;-79
2021/03/20 13:33:51;;;;;;;8.52;5.90;;;5.20;98.30;;;;;;4092745;28;20588;-79
2021/03/20 13:35:53;;;;;;;18.15;9.05;;;5.20;98.30;;;;;;4094340;28;20243;-79
2021/03/20 13:37:56;;;;;;;9.05;5.68;;;5.30;98.30;;;;;;4093597;28;20266;-79
2021/03/20 13:39:58;;;;;;;8.27;6.22;;;5.30;98.30;;;;;;4093785;29;20257;-80
2021/03/20 13:42:00;;;;;;;8.30;5.88;;;5.30;98.30;;;;;;4087682;29;20325;-81
2021/03/20 13:44:03;;;;;;;8.40;6.27;;;5.20;98.30;;;;;;4086311;28;20265;-81
2021/03/20 13:46:07;;;;;;;8.07;6.57;;;5.20;98.30;;;;;;4086768;28;20522;-81
2021/03/20 13:48:10;;;;;;;7.40;5.88;;;5.20;98.30;;;;;;4089107;28;20490;-80
2021/03/20 14:03:18;;;;;;;8.75;7.78;;;5.20;98.30;;;;;;3945542;30;20660;-80
2021/03/20 14:09:16;;;;;;;11.07;7.33;;;5.40;98.30;;;;;;3877535;30;20256;-81
2021/03/20 14:12:02;;;;;;;7.77;6.97;;;5.40;98.30;;;;;;3930886;30;20496;-80
2021/03/20 14:15:08;;;;;;;9.00;7.33;;;5.40;98.30;;;;;;3948477;29;20506;-80
